Time;durP1;ratioP1;P1;durP2;ratioP2;P2;SDS_P1;SDS_P2;PMS_P1;PMS_P2;Temp;Humidity;BMP_temperature;BMP_pressure;BME280_temperature;BME280_humidity;BME280_pressure;Samples;Min_cycle;Max_cycle;Signal;HPM_P1;HPM_P2
2023/03/10 00:00:11;;;;;;;1.35;0.63;;;;;;;11.11;78.41;97501.63;345199;28;1070;-72
2023/03/10 00:00:23;;;;;;;2.35;0.60;;;;;;;11.14;78.66;97502.22;343886;28;1424;-71
2023/03/10 00:00:35;;;;;;;2.83;0.50;;;;;;;11.12;78.17;97496.31;343294;28;1116;-72
2023/03/10 00:00:47;;;;;;;1.85;0.52;;;;;;;11.12;77.98;97498.91;343665;28;1300;-72
2023/03/10 00:00:59;;;;;;;1.63;0.50;;;;;;;11.13;78.12;97495.38;343483;28;1051;-71
2023/03/10 00:01:14;;;;;;;1.35;0.60;;;;;;;11.05;78.58;97497.69;343584;28;1023;-71
2023/03/10 00:01:29;;;;;;;1.40;0.60;;;;;;;11.07;79.24;97495.81;343247;28;1308;-72
2023/03/10 00:01:41;;;;;;;1.27;0.47;;;;;;;11.07;78.97;97495.81;345083;28;1095;-72
2023/03/10 00:01:53;;;;;;;1.92;0.50;;;;;;;11.03;78.64;97494.38;342515;28;1381;-72
2023/03/10 00:02:05;;;;;;;3.03;0.70;;;;;;;11.03;79.23;97499.56;342398;28;1332;-71
2023/03/10 00:02:18;;;;;;;3.00;0.70;;;;;;;11.02;79.08;97497.88;340558;28;1436;-71
2023/03/10 00:02:33;;;;;;;1.40;0.60;;;;;;;10.98;79.17;97501.63;341155;29;1036;-72
2023/03/10 00:02:48;;;;;;;0.80;0.60;;;;;;;11.00;79.62;97494.56;341300;29;1214;-72
2023/03/10 00:03:00;;;;;;;0.85;0.60;;;;;;;11.00;79.45;97492.78;341392;28;1345;-72
2023/03/10 00:03:12;;;;;;;0.57;0.55;;;;;;;11.03;79.36;97489.16;342491;28;1198;-71
2023/03/10 00:03:24;;;;;;;1.50;0.60;;;;;;;11.05;79.11;97492.50;342311;28;1064;-71
2023/03/10 00:03:36;;;;;;;2.00;0.57;;;;;;;11.07;79.23;97498.41;343541;28;1224;-71
2023/03/10 00:03:48;;;;;;;2.28;0.60;;;;;;;11.09;79.21;97499.13;343514;28;1336;-72
2023/03/10 00:04:01;;;;;;;0.90;0.60;;;;;;;11.02;79.05;97503.09;343284;28;1713;-72
2023/03/10 00:04:14;;;;;;;0.95;0.68;;;;;;;11.05;78.79;97497.69;343828;28;1156;-71
2023/03/10 00:04:26;;;;;;;1.05;0.60;;;;;;;11.08;78.21;97497.47;344055;28;1065;-72
2023/03/10 00:04:38;;;;;;;1.30;0.65;;;;;;;11.07;78.30;97495.00;344676;28;1261;-71
2023/03/10 00:04:51;;;;;;;1.75;0.80;;;;;;;11.17;77.65;97496.84;343354;28;1515;-72
2023/03/10 00:05:04;;;;;;;2.33;0.90;;;;;;;11.12;77.71;97487.69;342203;28;1478;-72
2023/03/10 00:05:18;;;;;;;2.33;0.80;;;;;;;11.16;77.59;97505.56;342521;28;1023;-72
2023/03/10 00:05:30;;;;;;;1.30;0.70;;;;;;;11.27;77.20;97501.38;343103;28;1515;-70
2023/03/10 00:05:42;;;;;;;1.20;0.63;;;;;;;11.27;76.66;97498.78;342426;28;2055;-73
2023/03/10 00:05:54;;;;;;;1.55;0.65;;;;;;;11.22;76.92;97493.09;342409;28;1057;-72
2023/03/10 00:06:08;;;;;;;2.13;0.80;;;;;;;11.24;76.95;97486.00;342610;28;2337;-73
2023/03/10 00:06:22;;;;;;;2.13;0.70;;;;;;;11.26;76.88;97491.94;343269;28;1837;-71
2023/03/10 00:06:35;;;;;;;1.73;0.55;;;;;;;11.30;76.51;97495.97;343292;28;1239;-71
2023/03/10 00:06:47;;;;;;;1.40;0.50;;;;;;;11.27;76.99;97486.63;342721;28;1515;-72
2023/03/10 00:06:59;;;;;;;2.10;0.57;;;;;;;11.26;76.79;97492.75;342437;28;1785;-72
2023/03/10 00:07:11;;;;;;;1.50;0.60;;;;;;;11.19;77.33;97489.75;342741;28;1070;-72
2023/03/10 00:07:23;;;;;;;1.20;0.60;;;;;;;11.23;77.32;97489.53;342443;28;1783;-72
2023/03/10 00:07:35;;;;;;;1.35;0.65;;;;;;;11.25;77.45;97490.25;342938;28;1197;-71
2023/03/10 00:07:49;;;;;;;1.98;0.90;;;;;;;11.19;77.47;97484.56;344488;28;1311;-72
2023/03/10 00:08:00;;;;;;;2.75;1.00;;;;;;;11.12;77.53;97482.47;344155;28;1159;-71
2023/03/10 00:08:12;;;;;;;3.05;0.93;;;;;;;11.04;77.77;97480.41;343574;28;1811;-71
2023/03/10 00:08:24;;;;;;;2.33;0.75;;;;;;;11.02;78.39;97482.28;342675;28;1800;-71
2023/03/10 00:08:38;;;;;;;1.77;0.70;;;;;;;11.03;77.94;97488.31;344981;28;1233;-72
2023/03/10 00:08:51;;;;;;;2.35;0.88;;;;;;;10.99;78.37;97482.50;344798;28;1369;-72
2023/03/10 00:09:03;;;;;;;2.70;0.90;;;;;;;11.03;78.25;97478.75;345101;28;1078;-73
2023/03/10 00:09:15;;;;;;;2.38;1.00;;;;;;;10.99;77.90;97480.75;344159;28;1286;-72
2023/03/10 00:09:27;;;;;;;2.17;1.05;;;;;;;11.01;77.65;97480.63;344836;28;1236;-71
2023/03/10 00:09:39;;;;;;;2.35;1.08;;;;;;;11.02;77.72;97479.69;344242;28;1613;-71
2023/03/10 00:09:51;;;;;;;2.67;1.20;;;;;;;11.03;78.48;97483.09;344724;28;1257;-71
2023/03/10 00:10:03;;;;;;;2.75;1.20;;;;;;;11.03;78.30;97472.72;345113;28;1037;-71
2023/03/10 00:10:16;;;;;;;3.92;1.20;;;;;;;11.02;77.66;97471.06;344990;28;1046;-72
2023/03/10 00:10:28;;;;;;;4.50;1.23;;;;;;;11.03;78.16;97468.38;345810;28;1080;-71
2023/03/10 00:10:40;;;;;;;3.30;1.10;;;;;;;11.02;78.15;97471.88;345475;28;728;-71
2023/03/10 00:10:52;;;;;;;2.47;1.02;;;;;;;11.12;77.50;97472.91;342738;28;1492;-72
2023/03/10 00:11:07;;;;;;;2.15;0.85;;;;;;;11.21;77.37;97476.66;344722;28;923;-72
2023/03/10 00:11:22;;;;;;;1.20;0.60;;;;;;;11.17;76.89;97470.84;343782;28;1050;-73
2023/03/10 00:11:34;;;;;;;2.00;0.60;;;;;;;11.17;76.80;97481.22;343282;28;1979;-72
2023/03/10 00:11:46;;;;;;;2.22;0.60;;;;;;;11.20;76.98;97481.00;342860;28;1952;-71
2023/03/10 00:11:58;;;;;;;3.15;0.77;;;;;;;11.14;77.16;97480.59;341951;28;1119;-71
2023/03/10 00:12:09;;;;;;;3.30;0.93;;;;;;;11.18;77.35;97482.88;341508;28;1328;-71
2023/03/10 00:12:21;;;;;;;4.47;1.10;;;;;;;11.17;77.30;97473.44;342507;28;1304;-71
2023/03/10 00:12:33;;;;;;;3.75;1.10;;;;;;;11.13;77.12;97469.38;342044;28;1225;-71
2023/03/10 00:12:45;;;;;;;2.80;1.15;;;;;;;11.12;77.44;97478.09;342244;28;1338;-71
2023/03/10 00:12:57;;;;;;;2.60;1.10;;;;;;;11.09;77.64;97473.13;341929;28;1863;-72
2023/03/10 00:13:09;;;;;;;2.30;0.90;;;;;;;11.12;77.42;97480.72;342614;28;1028;-71
2023/03/10 00:13:21;;;;;;;2.72;1.00;;;;;;;11.13;77.22;97482.38;342557;28;1242;-71
2023/03/10 00:13:33;;;;;;;1.80;0.80;;;;;;;11.14;77.22;97480.59;342350;28;1955;-72
2023/03/10 00:13:45;;;;;;;2.30;0.88;;;;;;;11.15;77.49;97482.28;342149;28;1335;-71
2023/03/10 00:13:57;;;;;;;2.30;0.90;;;;;;;11.16;77.57;97476.97;342093;28;1302;-71
2023/03/10 00:14:09;;;;;;;3.28;1.10;;;;;;;11.19;77.56;97481.13;343330;28;1367;-71
2023/03/10 00:14:21;;;;;;;3.50;1.02;;;;;;;11.15;77.72;97477.91;344543;28;1548;-71
2023/03/10 00:14:34;;;;;;;4.30;1.00;;;;;;;11.17;77.83;97478.63;342518;28;1199;-72
2023/03/10 00:14:46;;;;;;;3.38;1.00;;;;;;;11.20;77.85;97474.97;343121;28;1324;-72
2023/03/10 00:14:57;;;;;;;2.95;1.00;;;;;;;11.20;77.79;97481.00;344032;28;1062;-72
2023/03/10 00:15:11;;;;;;;1.77;0.85;;;;;;;11.17;77.64;97481.22;343834;28;1043;-72
2023/03/10 00:15:24;;;;;;;1.42;0.60;;;;;;;11.18;77.83;97480.28;343938;28;1074;-72
2023/03/10 00:15:36;;;;;;;1.40;0.70;;;;;;;11.14;78.19;97478.84;344047;28;1027;-74
2023/03/10 00:15:48;;;;;;;1.65;0.75;;;;;;;11.16;78.06;97482.16;343641;28;1343;-74
2023/03/10 00:16:01;;;;;;;1.83;0.70;;;;;;;11.12;78.23;97478.09;342635;28;1720;-72
2023/03/10 00:16:28;;;;;;;2.53;0.80;;;;;;;11.13;77.53;97479.78;344046;28;1020;-72
2023/03/10 00:16:41;;;;;;;1.40;0.65;;;;;;;11.15;77.23;97472.72;342527;28;896;-72
2023/03/10 00:16:53;;;;;;;1.17;0.65;;;;;;;11.23;77.10;97479.13;342917;28;1690;-72
2023/03/10 00:17:05;;;;;;;2.15;0.70;;;;;;;11.25;76.71;97465.09;342730;28;1159;-71
2023/03/10 00:17:17;;;;;;;2.33;0.75;;;;;;;11.29;76.88;97468.28;342483;28;1178;-73
2023/03/10 00:17:30;;;;;;;1.13;0.70;;;;;;;11.30;77.04;97475.16;345044;28;1202;-72
2023/03/10 00:17:42;;;;;;;0.93;0.60;;;;;;;11.32;77.31;97473.28;343659;28;1630;-71
2023/03/10 00:17:54;;;;;;;2.35;0.50;;;;;;;11.26;76.90;97468.53;342168;28;1560;-72
2023/03/10 00:18:06;;;;;;;2.63;0.60;;;;;;;11.26;76.76;97463.31;342322;28;1039;-71
2023/03/10 00:18:18;;;;;;;1.95;0.52;;;;;;;11.29;76.50;97474.34;342770;28;1025;-70
2023/03/10 00:18:30;;;;;;;0.98;0.60;;;;;;;11.32;76.12;97473.28;342717;28;1023;-71
2023/03/10 00:18:44;;;;;;;1.20;0.60;;;;;;;11.38;76.00;97467.66;342742;28;1285;-71
2023/03/10 00:18:56;;;;;;;1.45;0.60;;;;;;;11.38;75.89;97465.88;344970;28;1248;-71
2023/03/10 00:19:10;;;;;;;1.60;0.70;;;;;;;11.41;75.96;97457.03;347607;28;1201;-71
2023/03/10 00:19:22;;;;;;;1.60;0.70;;;;;;;11.43;75.82;97462.13;347549;28;1336;-71
2023/03/10 00:19:34;;;;;;;1.75;0.57;;;;;;;11.35;75.74;97466.09;344903;28;1641;-71
2023/03/10 00:19:46;;;;;;;2.20;0.60;;;;;;;11.38;75.96;97457.25;345169;28;1363;-71
2023/03/10 00:19:58;;;;;;;2.13;0.60;;;;;;;11.38;76.07;97470.25;346333;28;1190;-71
2023/03/10 00:20:11;;;;;;;1.48;0.52;;;;;;;11.39;75.75;97470.16;346059;28;1031;-71
2023/03/10 00:20:24;;;;;;;1.40;0.40;;;;;;;11.40;75.52;97465.78;346316;28;1117;-71
2023/03/10 00:20:35;;;;;;;1.55;0.40;;;;;;;11.31;76.10;97466.44;345034;28;1803;-71
2023/03/10 00:20:52;;;;;;;1.23;0.60;;;;;;;11.32;76.05;97462.88;345148;28;1544;-71
2023/03/10 00:21:04;;;;;;;1.10;0.70;;;;;;;11.33;76.35;97469.75;343849;28;1251;-71
2023/03/10 00:21:19;;;;;;;1.23;0.60;;;;;;;11.31;76.07;97467.25;344088;28;1333;-71
2023/03/10 00:21:32;;;;;;;1.63;0.60;;;;;;;11.33;76.32;97465.38;344101;28;1212;-71
2023/03/10 00:21:44;;;;;;;1.70;0.60;;;;;;;11.33;75.99;97464.56;343871;28;1358;-71
2023/03/10 00:21:56;;;;;;;1.75;0.70;;;;;;;11.31;76.81;97466.44;344016;28;1097;-72
2023/03/10 00:22:08;;;;;;;1.40;0.68;;;;;;;11.32;76.04;97468.91;344120;28;737;-71
2023/03/10 00:22:20;;;;;;;1.42;0.50;;;;;;;11.28;76.53;97470.06;342498;28;1350;-70
2023/03/10 00:22:34;;;;;;;1.40;0.50;;;;;;;11.29;76.52;97463.09;342675;28;1168;-70
2023/03/10 00:22:45;;;;;;;1.40;0.50;;;;;;;11.29;76.06;97468.28;343308;28;2164;-71
2023/03/10 00:22:57;;;;;;;2.45;0.55;;;;;;;11.27;76.21;97464.97;342802;28;1104;-72
2023/03/10 00:23:09;;;;;;;2.22;0.50;;;;;;;11.28;76.55;97466.66;342869;28;1812;-72
2023/03/10 00:23:21;;;;;;;1.50;0.40;;;;;;;11.23;76.67;97471.31;344033;28;1196;-72
2023/03/10 00:23:33;;;;;;;1.38;0.50;;;;;;;11.25;76.49;97472.91;343831;28;1063;-72
2023/03/10 00:23:48;;;;;;;0.77;0.50;;;;;;;11.17;76.90;97460.44;344205;28;1289;-72
2023/03/10 00:24:00;;;;;;;1.00;0.52;;;;;;;11.07;77.31;97469.00;345149;28;1335;-72
2023/03/10 00:24:12;;;;;;;1.30;0.60;;;;;;;11.07;77.23;97469.00;345140;28;1330;-72
2023/03/10 00:24:24;;;;;;;1.77;0.60;;;;;;;11.14;77.22;97470.22;344643;28;1104;-71
2023/03/10 00:24:36;;;;;;;2.40;0.50;;;;;;;11.11;77.25;97468.66;342853;28;1821;-73
2023/03/10 00:24:48;;;;;;;1.83;0.45;;;;;;;11.15;77.13;97462.31;342367;28;1219;-72
2023/03/10 00:25:00;;;;;;;1.30;0.50;;;;;;;11.14;77.42;97468.44;342383;28;1235;-72
2023/03/10 00:25:13;;;;;;;1.15;0.50;;;;;;;11.10;77.23;97468.75;342364;28;1497;-72
2023/03/10 00:25:25;;;;;;;0.98;0.50;;;;;;;11.07;77.42;97475.00;342184;28;1241;-72
2023/03/10 00:25:38;;;;;;;1.27;0.50;;;;;;;11.01;77.86;97478.03;340942;29;1054;-72
2023/03/10 00:25:58;;;;;;;1.40;0.40;;;;;;;11.15;77.18;97467.50;341648;28;1302;-72
2023/03/10 00:26:12;;;;;;;1.75;0.40;;;;;;;11.26;76.56;97473.72;342132;28;1101;-71
2023/03/10 00:26:26;;;;;;;2.00;0.40;;;;;;;11.27;76.25;97473.63;342781;28;1288;-72
2023/03/10 00:26:38;;;;;;;1.30;0.47;;;;;;;11.30;76.22;97467.38;344550;28;1039;-72
2023/03/10 00:26:51;;;;;;;1.77;0.50;;;;;;;11.28;76.06;97467.47;345768;28;1333;-71
2023/03/10 00:27:03;;;;;;;1.42;0.50;;;;;;;11.22;76.16;97461.88;346631;28;1148;-71
2023/03/10 00:27:15;;;;;;;0.82;0.50;;;;;;;11.25;76.15;97456.44;346343;28;1193;-72
2023/03/10 00:27:27;;;;;;;0.68;0.40;;;;;;;11.22;76.61;97474.88;344969;28;1034;-71
2023/03/10 00:27:39;;;;;;;0.63;0.40;;;;;;;11.16;76.76;97469.16;343725;28;3585;-73
2023/03/10 00:27:51;;;;;;;0.40;0.40;;;;;;;11.11;76.76;97471.25;344818;28;1371;-71
2023/03/10 00:28:03;;;;;;;0.40;0.40;;;;;;;11.13;76.61;97464.19;343389;28;1067;-72
2023/03/10 00:28:15;;;;;;;0.80;0.40;;;;;;;11.17;76.89;97468.22;343480;28;1034;-72
2023/03/10 00:28:27;;;;;;;1.45;0.50;;;;;;;11.17;76.74;97465.63;343724;28;1051;-73
2023/03/10 00:28:39;;;;;;;1.58;0.50;;;;;;;11.22;76.84;97472.28;343473;28;1246;-73
2023/03/10 00:28:52;;;;;;;1.60;0.47;;;;;;;11.30;76.29;97464.75;343691;28;1325;-72
2023/03/10 00:29:04;;;;;;;0.68;0.40;;;;;;;11.28;76.00;97466.66;343742;28;1292;-71
2023/03/10 00:29:17;;;;;;;0.60;0.30;;;;;;;11.27;75.93;97464.97;343357;28;1116;-72
2023/03/10 00:29:29;;;;;;;0.70;0.40;;;;;;;11.30;76.48;97464.75;343846;28;1368;-73
2023/03/10 00:29:40;;;;;;;1.15;0.40;;;;;;;11.21;76.74;97466.25;343885;28;1124;-73
2023/03/10 00:29:52;;;;;;;1.98;0.43;;;;;;;11.25;76.32;97459.03;343942;28;1295;-72
2023/03/10 00:30:05;;;;;;;2.03;0.45;;;;;;;11.19;76.43;97468.13;343808;28;1371;-73
2023/03/10 00:30:20;;;;;;;1.33;0.50;;;;;;;11.22;76.90;97467.06;343113;28;1590;-75
2023/03/10 00:30:34;;;;;;;0.50;0.40;;;;;;;11.17;76.89;97465.63;345064;28;1081;-73
2023/03/10 00:30:56;;;;;;;1.02;0.40;;;;;;;11.19;76.89;97465.53;344662;28;1288;-73
2023/03/10 00:31:14;;;;;;;1.00;0.52;;;;;;;11.28;76.08;97462.25;343969;28;1019;-72
2023/03/10 00:31:27;;;;;;;1.23;0.60;;;;;;;11.32;75.96;97462.88;343872;28;1038;-72
2023/03/10 00:31:39;;;;;;;1.10;0.52;;;;;;;11.34;75.74;97461.00;343967;28;1145;-72
2023/03/10 00:31:51;;;;;;;1.05;0.50;;;;;;;11.34;76.01;97450.59;343897;28;1282;-72
2023/03/10 00:32:03;;;;;;;0.63;0.40;;;;;;;11.34;75.42;97461.00;343485;28;1800;-72
2023/03/10 00:32:15;;;;;;;0.40;0.40;;;;;;;11.35;75.33;97455.72;344964;28;1838;-72
2023/03/10 00:32:27;;;;;;;1.35;0.50;;;;;;;11.36;75.63;97465.16;345527;28;724;-76
2023/03/10 00:32:41;;;;;;;1.65;0.60;;;;;;;11.35;75.66;97460.09;344043;28;1568;-75
2023/03/10 00:32:54;;;;;;;1.00;0.40;;;;;;;11.34;75.92;97461.00;343939;28;1657;-73
2023/03/10 00:33:05;;;;;;;0.93;0.40;;;;;;;11.35;75.67;97460.09;343929;28;2041;-73
2023/03/10 00:33:17;;;;;;;1.27;0.45;;;;;;;11.28;75.58;97462.25;344081;28;1019;-73
2023/03/10 00:33:33;;;;;;;1.42;0.50;;;;;;;11.33;76.03;97464.56;344459;28;1253;-73
2023/03/10 00:33:46;;;;;;;1.02;0.43;;;;;;;11.35;76.15;97457.47;344957;28;1293;-73
2023/03/10 00:33:58;;;;;;;0.65;0.40;;;;;;;11.31;76.42;97462.06;343828;28;1046;-72
2023/03/10 00:34:11;;;;;;;0.57;0.50;;;;;;;11.32;76.07;97463.72;344072;28;1085;-72
2023/03/10 00:34:23;;;;;;;0.90;0.50;;;;;;;11.31;75.95;97462.06;343963;28;1102;-72
2023/03/10 00:34:35;;;;;;;1.30;0.50;;;;;;;11.33;76.04;97464.56;344001;28;1253;-72
2023/03/10 00:34:47;;;;;;;1.50;0.50;;;;;;;11.33;75.83;97465.38;342689;28;1767;-72
2023/03/10 00:34:59;;;;;;;1.10;0.40;;;;;;;11.33;75.72;97464.56;342789;28;1622;-72
2023/03/10 00:35:10;;;;;;;0.95;0.38;;;;;;;11.33;75.70;97469.75;343178;28;1374;-72
2023/03/10 00:35:22;;;;;;;0.52;0.30;;;;;;;11.31;75.78;97466.44;343422;28;1904;-72
2023/03/10 00:35:34;;;;;;;0.30;0.30;;;;;;;11.36;75.71;97459.13;343432;28;1031;-71
2023/03/10 00:35:46;;;;;;;0.30;0.30;;;;;;;11.35;75.49;97471.31;342603;28;1289;-72
2023/03/10 00:36:00;;;;;;;0.30;0.30;;;;;;;11.36;75.33;97461.72;343452;28;1027;-72
2023/03/10 00:36:17;;;;;;;0.60;0.30;;;;;;;11.32;75.59;97468.09;342630;28;1819;-72
2023/03/10 00:36:30;;;;;;;1.40;0.40;;;;;;;11.28;75.80;97461.44;340785;29;1173;-72
2023/03/10 00:36:42;;;;;;;1.80;0.40;;;;;;;11.17;76.81;97470.00;341096;29;1044;-72
2023/03/10 00:36:54;;;;;;;2.00;0.40;;;;;;;11.17;76.53;97470.84;342010;28;1068;-72
2023/03/10 00:37:06;;;;;;;1.33;0.40;;;;;;;11.15;77.20;97462.31;342326;28;1031;-73
2023/03/10 00:37:18;;;;;;;0.88;0.38;;;;;;;11.14;77.85;97473.63;342232;28;1196;-73
2023/03/10 00:37:30;;;;;;;0.60;0.40;;;;;;;11.13;77.06;97469.38;343159;28;1556;-72
2023/03/10 00:37:42;;;;;;;0.60;0.40;;;;;;;11.14;76.97;97473.63;342380;28;1369;-72
2023/03/10 00:37:54;;;;;;;0.50;0.40;;;;;;;11.19;76.89;97473.34;342325;28;1074;-72
2023/03/10 00:38:06;;;;;;;0.73;0.40;;;;;;;11.20;77.08;97474.97;342308;28;1178;-72
2023/03/10 00:38:18;;;;;;;0.70;0.40;;;;;;;11.15;77.00;97477.09;341695;28;1746;-72
2023/03/10 00:38:31;;;;;;;0.75;0.30;;;;;;;11.15;76.90;97470.09;342724;28;1346;-72
2023/03/10 00:38:44;;;;;;;0.70;0.40;;;;;;;11.15;77.12;97470.09;341101;29;1035;-72
2023/03/10 00:38:59;;;;;;;0.70;0.40;;;;;;;11.09;77.30;97467.94;342168;28;1262;-73
2023/03/10 00:39:12;;;;;;;0.68;0.40;;;;;;;11.08;77.31;97461.06;342419;28;1996;-73
2023/03/10 00:39:24;;;;;;;0.80;0.40;;;;;;;11.11;77.34;97470.44;342302;28;1209;-72
2023/03/10 00:39:35;;;;;;;1.88;0.40;;;;;;;11.04;77.46;97462.22;342521;28;910;-73
2023/03/10 00:39:51;;;;;;;1.60;0.35;;;;;;;11.03;77.60;97473.56;343699;28;1312;-72
2023/03/10 00:40:09;;;;;;;0.52;0.30;;;;;;;11.00;77.39;97463.38;344085;28;1067;-72
2023/03/10 00:40:21;;;;;;;0.95;0.40;;;;;;;11.02;77.58;97468.47;342202;28;1349;-74
2023/03/10 00:40:33;;;;;;;1.02;0.40;;;;;;;10.97;77.88;97458.41;342754;28;1079;-74
2023/03/10 00:40:45;;;;;;;1.00;0.40;;;;;;;10.89;77.78;97466.72;343592;28;1292;-73
2023/03/10 00:41:05;;;;;;;0.73;0.30;;;;;;;10.84;78.24;97452.38;343534;28;1356;-73
2023/03/10 00:41:23;;;;;;;0.50;0.50;;;;;;;10.72;78.98;97470.44;343625;28;1077;-73
2023/03/10 00:41:37;;;;;;;0.47;0.38;;;;;;;10.71;79.42;97463.59;343683;28;1295;-74
2023/03/10 00:41:49;;;;;;;0.98;0.40;;;;;;;10.65;79.84;97464.03;344009;28;1379;-72
2023/03/10 00:42:02;;;;;;;1.08;0.50;;;;;;;10.67;79.92;97462.16;343475;28;1047;-73
2023/03/10 00:42:13;;;;;;;1.00;0.40;;;;;;;10.61;80.06;97467.78;343642;28;1152;-73
2023/03/10 00:42:25;;;;;;;1.50;0.50;;;;;;;10.62;80.42;97469.41;343580;28;1038;-74
2023/03/10 00:42:37;;;;;;;1.20;0.40;;;;;;;10.61;79.99;97467.78;344043;28;1136;-73
2023/03/10 00:42:49;;;;;;;1.00;0.40;;;;;;;10.67;80.27;97472.56;344635;28;1254;-73
2023/03/10 00:43:01;;;;;;;0.65;0.40;;;;;;;10.66;80.36;97464.84;344206;28;1587;-75
2023/03/10 00:43:13;;;;;;;0.70;0.40;;;;;;;10.61;80.61;97472.13;344884;28;1502;-74
2023/03/10 00:43:26;;;;;;;0.70;0.38;;;;;;;10.63;80.15;97465.91;346275;28;1055;-72
2023/03/10 00:43:39;;;;;;;0.40;0.40;;;;;;;10.58;80.39;97460.16;344859;28;1082;-72
2023/03/10 00:43:51;;;;;;;0.40;0.38;;;;;;;10.55;80.75;97460.41;344922;28;1202;-72
2023/03/10 00:44:04;;;;;;;0.38;0.35;;;;;;;10.55;80.90;97463.00;344889;28;1094;-72
2023/03/10 00:44:16;;;;;;;0.60;0.43;;;;;;;10.58;80.85;97467.97;344772;28;1209;-72
2023/03/10 00:44:28;;;;;;;1.05;0.52;;;;;;;10.58;81.39;97465.38;344724;28;1024;-73
2023/03/10 00:44:40;;;;;;;1.27;0.50;;;;;;;10.59;80.99;97469.63;344722;28;1147;-72
2023/03/10 00:44:52;;;;;;;1.17;0.40;;;;;;;10.63;80.76;97460.69;343340;28;1254;-73
2023/03/10 00:45:04;;;;;;;1.50;0.40;;;;;;;10.62;80.30;97458.19;342468;28;1448;-72
2023/03/10 00:45:16;;;;;;;1.43;0.40;;;;;;;10.74;80.10;97460.78;343302;28;1589;-72
2023/03/10 00:45:28;;;;;;;0.88;0.30;;;;;;;10.82;79.61;97455.06;345173;28;1027;-72
2023/03/10 00:45:40;;;;;;;0.55;0.30;;;;;;;10.88;79.18;97461.63;345144;28;1621;-73
2023/03/10 00:45:52;;;;;;;0.60;0.30;;;;;;;10.85;79.70;97461.84;343477;28;1253;-72
2023/03/10 00:46:05;;;;;;;1.40;0.40;;;;;;;10.88;79.48;97453.81;343589;28;1134;-73
2023/03/10 00:46:17;;;;;;;1.45;0.40;;;;;;;10.87;80.17;97459.97;342653;28;1173;-72
2023/03/10 00:46:33;;;;;;;0.80;0.40;;;;;;;10.79;79.80;97456.13;342500;28;1301;-73
2023/03/10 00:46:45;;;;;;;0.70;0.40;;;;;;;10.79;79.58;97450.91;343557;28;1248;-72
2023/03/10 00:46:57;;;;;;;0.77;0.40;;;;;;;10.81;79.84;97452.59;343493;28;920;-72
2023/03/10 00:47:09;;;;;;;0.90;0.40;;;;;;;10.84;79.22;97462.75;343680;28;1054;-73
2023/03/10 00:47:20;;;;;;;0.70;0.30;;;;;;;10.90;79.36;97457.97;343728;28;1039;-73
2023/03/10 00:47:33;;;;;;;0.30;0.30;;;;;;;10.90;79.44;97457.97;343658;28;1079;-73
2023/03/10 00:47:45;;;;;;;1.20;0.38;;;;;;;10.88;80.11;97456.41;343530;28;1336;-72
2023/03/10 00:47:58;;;;;;;1.30;0.40;;;;;;;10.87;80.24;97455.59;343832;28;1310;-72
2023/03/10 00:48:10;;;;;;;0.90;0.40;;;;;;;10.89;80.28;97455.50;342616;28;1664;-73
2023/03/10 00:48:22;;;;;;;0.40;0.40;;;;;;;10.84;80.21;97458.38;345277;28;1847;-74
2023/03/10 00:48:35;;;;;;;1.05;0.40;;;;;;;10.81;80.31;97452.59;344815;28;1074;-73
2023/03/10 00:48:46;;;;;;;1.48;0.40;;;;;;;10.81;80.68;97447.41;343760;28;1370;-73
2023/03/10 00:48:59;;;;;;;1.50;0.40;;;;;;;10.82;80.80;97449.03;342772;28;1827;-73
2023/03/10 00:49:15;;;;;;;0.60;0.32;;;;;;;10.83;80.64;97451.53;343710;28;1222;-72
2023/03/10 00:49:27;;;;;;;0.77;0.32;;;;;;;10.84;80.94;97453.19;342815;28;1837;-72
2023/03/10 00:49:39;;;;;;;1.00;0.30;;;;;;;10.86;80.60;97453.09;344356;28;2181;-72
2023/03/10 00:49:51;;;;;;;0.93;0.40;;;;;;;10.93;79.71;97462.16;344640;28;1467;-72
2023/03/10 00:50:03;;;;;;;1.27;0.40;;;;;;;10.87;79.66;97453.00;344300;28;1418;-75
2023/03/10 00:50:15;;;;;;;1.47;0.50;;;;;;;10.91;79.04;97449.25;343661;28;1564;-74
2023/03/10 00:50:27;;;;;;;1.17;0.43;;;;;;;10.93;79.18;97457.78;344950;28;1079;-74
2023/03/10 00:50:39;;;;;;;0.68;0.32;;;;;;;10.95;79.21;97450.69;344967;28;1129;-73
2023/03/10 00:50:51;;;;;;;0.50;0.30;;;;;;;10.96;79.57;97452.34;344915;28;1748;-74
2023/03/10 00:51:04;;;;;;;0.30;0.30;;;;;;;10.98;79.25;97454.84;344857;28;1103;-72
2023/03/10 00:51:17;;;;;;;0.50;0.40;;;;;;;10.96;79.51;97454.13;344964;28;1084;-73
2023/03/10 00:51:29;;;;;;;0.70;0.50;;;;;;;10.92;79.69;97452.66;343586;28;1266;-73
2023/03/10 00:51:41;;;;;;;0.85;0.50;;;;;;;10.91;79.44;97457.03;343344;28;1006;-72
2023/03/10 00:51:53;;;;;;;1.05;0.45;;;;;;;10.98;79.17;97449.63;343502;28;1063;-73
2023/03/10 00:52:05;;;;;;;1.37;0.47;;;;;;;10.98;79.17;97447.03;343475;28;1446;-73
2023/03/10 00:52:17;;;;;;;1.70;0.40;;;;;;;10.98;78.78;97449.63;343395;28;1020;-74
2023/03/10 00:52:32;;;;;;;1.20;0.40;;;;;;;10.94;79.05;97453.41;343451;28;1248;-74
2023/03/10 00:52:44;;;;;;;1.00;0.40;;;;;;;10.90;79.45;97451.94;343441;28;1363;-73
2023/03/10 00:52:56;;;;;;;0.70;0.40;;;;;;;10.87;79.91;97449.56;343913;28;1573;-73
2023/03/10 00:53:08;;;;;;;1.42;0.50;;;;;;;10.83;79.90;97451.53;344773;28;1082;-72
2023/03/10 00:53:20;;;;;;;2.03;0.50;;;;;;;10.82;80.31;97449.88;344892;28;1037;-73
2023/03/10 00:53:35;;;;;;;1.58;0.50;;;;;;;10.75;80.61;97454.66;346222;28;1038;-73
2023/03/10 00:53:48;;;;;;;0.65;0.30;;;;;;;10.65;80.76;97451.03;346983;28;934;-72
2023/03/10 00:54:01;;;;;;;0.35;0.30;;;;;;;10.67;81.12;97451.75;347702;28;1081;-73
2023/03/10 00:54:13;;;;;;;0.70;0.30;;;;;;;10.70;81.28;97453.31;346195;28;1050;-73
2023/03/10 00:54:25;;;;;;;0.90;0.40;;;;;;;10.78;80.13;97446.69;346080;28;1224;-72
2023/03/10 00:54:39;;;;;;;0.60;0.40;;;;;;;10.79;80.11;97440.53;344767;28;1256;-72
2023/03/10 00:54:52;;;;;;;0.60;0.40;;;;;;;10.82;80.09;97449.03;343504;28;1092;-72
2023/03/10 00:55:04;;;;;;;0.65;0.40;;;;;;;10.82;79.91;97456.84;343475;28;1054;-72
2023/03/10 00:55:19;;;;;;;1.10;0.40;;;;;;;10.85;80.39;97443.66;343332;28;1059;-72
2023/03/10 00:55:31;;;;;;;1.10;0.40;;;;;;;10.86;80.06;97450.50;343336;28;1092;-72
2023/03/10 00:55:43;;;;;;;0.75;0.40;;;;;;;10.84;80.71;97447.16;342438;28;1326;-73
2023/03/10 00:56:11;;;;;;;0.60;0.40;;;;;;;10.84;80.66;97448.00;342305;28;1027;-73
2023/03/10 00:56:24;;;;;;;1.10;0.50;;;;;;;10.75;81.23;97441.66;345266;28;951;-73
2023/03/10 00:56:37;;;;;;;1.10;0.50;;;;;;;10.73;80.85;97446.16;344873;28;1237;-73
2023/03/10 00:56:49;;;;;;;0.88;0.40;;;;;;;10.69;80.74;97454.25;344948;28;1270;-73
2023/03/10 00:57:01;;;;;;;0.63;0.30;;;;;;;10.65;81.36;97447.63;343944;28;1103;-72
2023/03/10 00:57:13;;;;;;;0.90;0.30;;;;;;;10.62;81.29;97446.03;346145;28;1906;-72
2023/03/10 00:57:25;;;;;;;1.83;0.35;;;;;;;10.62;81.00;97448.63;346376;28;1246;-73
2023/03/10 00:57:37;;;;;;;2.35;0.40;;;;;;;10.65;81.40;97443.25;346414;28;1177;-73
2023/03/10 00:57:49;;;;;;;2.35;0.40;;;;;;;10.61;81.13;97443.56;346279;28;1272;-73
2023/03/10 00:58:01;;;;;;;1.40;0.30;;;;;;;10.62;81.66;97447.81;345028;28;1173;-73
2023/03/10 00:58:13;;;;;;;0.60;0.30;;;;;;;10.60;81.75;97445.31;344870;28;1100;-73
2023/03/10 00:58:25;;;;;;;0.73;0.38;;;;;;;10.56;81.92;97447.31;344862;28;856;-73
2023/03/10 00:58:37;;;;;;;1.58;0.40;;;;;;;10.57;82.18;97448.13;343769;28;1156;-72
2023/03/10 00:58:51;;;;;;;1.60;0.40;;;;;;;10.56;82.64;97443.84;343588;28;1061;-73
2023/03/10 00:59:03;;;;;;;0.70;0.40;;;;;;;10.53;82.31;97438.88;343676;28;1248;-73
2023/03/10 00:59:15;;;;;;;0.50;0.40;;;;;;;10.50;82.87;97445.13;343810;28;737;-73
2023/03/10 00:59:27;;;;;;;0.60;0.40;;;;;;;10.48;83.10;97440.94;343371;28;1308;-73
2023/03/10 00:59:51;;;;;;;0.40;0.40;;;;;;;10.57;82.57;97440.34;344282;28;1197;-73
2023/03/10 01:00:05;;;;;;;0.60;0.40;;;;;;;10.52;82.84;97432.88;344826;28;1041;-73
2023/03/10 01:00:18;;;;;;;1.13;0.57;;;;;;;10.50;83.12;97436.47;345330;28;1580;-73
2023/03/10 01:00:30;;;;;;;2.30;0.55;;;;;;;10.53;83.28;97438.88;343839;28;1609;-74
2023/03/10 01:00:42;;;;;;;1.63;0.40;;;;;;;10.54;83.15;97435.34;345389;28;1697;-73
2023/03/10 01:00:55;;;;;;;0.70;0.32;;;;;;;10.51;83.04;97435.56;343541;28;1188;-74
2023/03/10 01:01:20;;;;;;;0.32;0.30;;;;;;;10.57;82.91;97432.53;342728;28;1904;-73
2023/03/10 01:01:38;;;;;;;1.55;0.38;;;;;;;10.58;82.78;97436.78;342052;28;1030;-74
2023/03/10 01:01:50;;;;;;;1.30;0.40;;;;;;;10.57;82.68;97435.13;343181;28;1213;-73
2023/03/10 01:02:02;;;;;;;0.45;0.32;;;;;;;10.56;82.72;97436.91;343562;28;1257;-73